Joaquín Méndez

Olheiro-Chefe - Huracán
23 Abr 2028
Domingo
Processo

Personalidade

Adaptabilidade (10) Ambição (18) Controvérsia (11) Lealdade (16) Pressão (9) Profissionalismo (18) Espírito Esportivo (7) Temperamento (15)

Perfil

Estilo de Treinamento Democrático
Licença Continental C
Determinação 10
Gestão de Pessoas 9
Motivação 8
Disciplina 10
Satisfação no Trabalho
100%
Fadiga
0%
Função Olheiro-Chefe
Salário 97.5K p/s
Contrato 14.03.2029

Desempenho

Comportamento Bom
Eficácia do Treinamento
36%
Desenvolvimento do Jogador
45%
Prevenção de Lesões
45%
Implementação Tática
40%

Eventos Recentes

Participou de uma reunião de recrutamento agora
Recomendou um alvo de transferência agora
Recomendou um alvo de transferência agora
Participou de uma reunião de recrutamento agora
Avaliou um jogador agora
Avaliou um jogador 7d atrás
Avaliou um jogador 7d atrás
Avaliou um jogador 7d atrás

Monitorando agora

312
Jogador Clube Status Habilidade Confiança Observado Última observação Último voto
Jorthy Mokio ADO Den Haag Ativo 123 / 131 40% 3 20.04.2028 -
Kelian Le Pironnec Mirandés Ativo 86 / 109 40% 1 20.04.2028 -
Josh Nichols Oldham Athletic Ativo 118 / 135 40% 8 19.04.2028 -
Andrea Bertoncini Triestina Ativo 105 / 105 40% 1 19.04.2028 -
Miguel Figueiredo Benfica Ativo 113 / 138 40% 2 18.04.2028 -
Makar Vysochenko Spartak Moscow Ativo 94 / 92 40% 2 16.04.2028 -
Daniel Banjaqui Benfica Ativo 110 / 117 40% 3 16.04.2028 -
Eko Solomon Leixões Ativo 77 / 79 40% 2 13.04.2028 -
Augusto Bando Ascoli Ativo 121 / 128 40% 1 13.04.2028 -
Salvador Blopá Sporting CP Ativo 111 / 131 40% 1 10.04.2028 -
Finn Jeltsch VfB Stuttgart Ativo 140 / 150 40% 3 09.04.2028 -
Andrey Ivlev Nizhniy Novgorod Ativo 113 / 130 40% 1 09.04.2028 -
Mattia Puzone Siracusa Ativo 90 / 98 40% 1 08.04.2028 -
Claudio Martey Pianese Ativo 83 / 83 40% 1 08.04.2028 -
Vinícius Lira São Paulo Ativo 113 / 122 40% 1 07.04.2028 -
Matvey Bardachev Zenit Ativo 109 / 110 40% 1 06.04.2028 -
Gustavo Albarracín Alavés Ativo 130 / 114 40% 1 05.04.2028 -
Thiago Silvero Vélez Ativo 131 / 124 40% 1 05.04.2028 -
Olivier Leroux Mouscron Ativo 90 / 104 40% 2 20.03.2028 -
Victor Hernandez Santa Fe Ativo 114 / 118 40% 1 20.03.2028 -
Josh Acheampong Everton Ativo 136 / 157 40% 4 18.03.2028 -
Germán Barbas Burgos Ativo 103 / 120 40% 1 18.03.2028 -
Jorge Moreno Athletic Bilbao Ativo 134 / 123 40% 1 17.03.2028 -
Ayden Heaven Portsmouth Ativo 144 / 143 40% 3 16.03.2028 -
Matías Argüello Olimpia Ativo 107 / 111 40% 1 16.03.2028 -
Tyler Fletcher Rotherham United Ativo 98 / 113 40% 3 15.03.2028 -
Dmitry Pestryakov Krasnodar Ativo 110 / 120 40% 1 15.03.2028 -
Martim Cunha Porto Ativo 100 / 103 40% 1 13.03.2028 -
Simone Kosijer Triestina Ativo 110 / 107 40% 1 12.03.2028 -
Chris Rigg Sunderland Ativo 146 / 132 40% 1 11.03.2028 -
Honest Ahanor Atalanta Ativo 126 / 151 40% 2 17.02.2028 -
André Miranda Porto Ativo 122 / 115 40% 1 17.02.2028 -
Sindre Walle Egeli Udinese Ativo 149 / 137 40% 4 12.02.2028 -
Christos Mouzakitis Hull City Ativo 126 / 136 40% 2 12.02.2028 -
Ruben Ramos LA Galaxy Ativo 91 / 99 40% 2 11.02.2028 -
Ben Broggio Mansfield Town Ativo 120 / 102 40% 3 10.02.2028 -
Gabe Forsyth Colchester United Ativo 110 / 128 40% 1 09.02.2028 -
Babis Kostoulas Oxford United Ativo 134 / 147 40% 1 08.02.2028 -
Gabriel Mec Feirense Ativo 137 / 121 40% 1 08.02.2028 -
Benjamín Rodríguez Albion Ativo 79 / 97 40% 2 06.02.2028 -
Francisco Marchant Colo-Colo Ativo 91 / 108 40% 2 06.02.2028 -
Henrique Carmo Sochi Ativo 138 / 143 40% 1 05.02.2028 -
Matvey Ivanov Zenit Ativo 88 / 92 40% 1 05.02.2028 -
Josh King Newcastle United Ativo 140 / 147 40% 1 04.02.2028 -
Ryan McAidoo Oldham Athletic Ativo 114 / 132 40% 4 02.02.2028 -
Ibrahim Fullah Charlton Athletic Ativo 133 / 143 40% 1 02.02.2028 -
Igor Tyjon Barrow AFC Ativo 126 / 131 40% 2 01.02.2028 -
Lander Astiazarán Real Sociedad Ativo 121 / 110 40% 2 31.01.2028 -
Trey Nyoni Rotherham United Ativo 136 / 151 40% 1 29.01.2028 -
Ryan Kavuma-McQueen Accrington Stanley Ativo 124 / 132 40% 1 28.01.2028 -
Pedro Baltika Ativo 127 / 131 40% 1 26.01.2028 -
Giovanni Baroni Talleres Ativo 110 / 126 40% 2 25.01.2028 -
Eli Junior Kroupi Bournemouth Ativo 156 / 149 40% 1 24.01.2028 -
Romelle Donovan Brentford Ativo 139 / 142 40% 1 20.01.2028 -
Alex Verón Vélez Ativo 115 / 125 40% 1 19.01.2028 -
Bazoumana Touré Newcastle United Ativo 135 / 154 40% 1 19.01.2028 -
Giovanni Cantizano Fulham Ativo 114 / 130 40% 1 16.01.2028 -
Ihojan Pérez Cerro Largo Ativo 92 / 102 40% 1 14.01.2028 -
Juan Camilo Córdoba Deportivo Pereira Ativo 93 / 96 40% 1 13.01.2028 -
Bautista Carboni Defensores Unidos Ativo 101 / 112 40% 2 11.01.2028 -
Mateus Mané Burnley Ativo 142 / 141 40% 1 11.01.2028 -
Valentino Acuña Newell's Old Boys Ativo 119 / 122 40% 1 09.01.2028 -
Sebastián Ramírez Aguilas Doradas Ativo 107 / 121 40% 1 06.01.2028 -
Lewis Orford Crewe Alexandra Ativo 98 / 114 40% 1 05.01.2028 -
Kerim Alajbegović Modena Ativo 146 / 133 40% 1 04.01.2028 -
Nestory Irankunda Watford Ativo 113 / 125 40% 1 03.01.2028 -
Nicolás Ferreira Artigas Ativo 88 / 88 40% 1 03.01.2028 -
Joaquín Bigo Tristán Suárez Negociando 97 / 98 62% 1 01.12.2027 Aprovar
Ignacio Fernández Boston River Ativo 99 / 98 40% 1 01.12.2027 -
Kevin Zenón Boca Juniors Ativo 135 / 131 40% 1 30.11.2027 -
Jacob Widell Zetterström Derby County Ativo 129 / 147 40% 1 29.11.2027 -
Evgeny Latyshonok Nizhniy Novgorod Ativo 137 / 131 40% 3 28.11.2027 -
Alexei Rojas Fedorushchenko Barrow AFC Ativo 133 / 125 40% 1 28.11.2027 -
Arijanet Murić Sassuolo Ativo 155 / 151 40% 3 26.11.2027 -
Jack Walton Preston Ativo 135 / 134 40% 1 23.11.2027 -
Zion Suzuki Aston Villa Ativo 156 / 144 40% 1 21.11.2027 -
Carl Rushworth Aston Villa Ativo 155 / 152 40% 1 21.11.2027 -
Alex Meret Napoli Ativo 149 / 166 40% 7 19.11.2027 -
Radek Vítek Middlesbrough Ativo 149 / 139 40% 1 19.11.2027 -
Tomás Durso Atlético Tucumán Ativo 136 / 127 40% 3 18.11.2027 -
Brandon Austin Brighton Ativo 124 / 148 40% 1 18.11.2027 -
Vladan Kovačević Norwich City Ativo 132 / 126 40% 2 16.11.2027 -
Lukáš Horníček Burnley Ativo 158 / 155 40% 2 15.11.2027 -
Oliver Dovin Coventry City Ativo 131 / 137 40% 1 15.11.2027 -
Caoimhin Kelleher Brentford Ativo 169 / 169 40% 1 12.11.2027 -
Alexandr Maximenko Spartak Moscow Ativo 140 / 124 40% 2 11.11.2027 -
Ezequiel Centurión River Plate Ativo 128 / 133 40% 2 09.11.2027 -
Josh Keeley Luton Town Ativo 126 / 135 40% 1 09.11.2027 -
Joe Buršík Portsmouth Ativo 109 / 131 40% 1 08.11.2027 -
Jesús Owono Andorra Ativo 109 / 127 40% 1 08.11.2027 -
Emiliano González Almagro Ativo 109 / 114 40% 3 07.11.2027 -
Elia Caprile Cagliari Ativo 141 / 140 40% 3 07.11.2027 -
Mads Hermansen West Ham United Ativo 138 / 134 40% 2 06.11.2027 -
Anthony Patterson Wrexham Ativo 151 / 139 40% 1 06.11.2027 -
James Trafford Leeds United Ativo 145 / 139 40% 1 05.11.2027 -
Sam Tickle Modena Ativo 147 / 147 40% 5 04.11.2027 -
Rocco Ríos Novo Sivasspor Ativo 104 / 125 40% 2 31.10.2027 -
Justin Bijlow Atalanta Ativo 147 / 146 40% 1 29.10.2027 -
Vanja Milinković-Savić Atalanta Ativo 163 / 140 40% 2 28.10.2027 -
Lucas Chevalier AC Milan Ativo 174 / 174 40% 1 28.10.2027 -
Cristian Rivero Real Sociedad Ativo 132 / 137 40% 7 26.10.2027 -
John Victor Chelsea Ativo 130 / 137 40% 2 25.10.2027 -
Esteban Glellel Quilmes Ativo 110 / 110 40% 2 22.10.2027 -
Ilja Pomazun Spartak Moscow Ativo 111 / 120 40% 1 22.10.2027 -
Temirlan Anarbekov Kairat Ativo 117 / 108 40% 2 18.10.2027 -
Federico Losas Chacarita Juniors Ativo 109 / 120 40% 3 16.10.2027 -
Abduvohid Ne'matov Nasaf Ativo 126 / 111 40% 4 15.10.2027 -
Luciano Jachfe Nueva Chicago Ativo 111 / 125 40% 3 14.10.2027 -
Ignacio Chicco Aldosivi Ativo 114 / 113 40% 3 13.10.2027 -
Miguel Morro Burgos Ativo 114 / 115 40% 3 13.10.2027 -
Riccardo Gagno Vicenza Ativo 114 / 130 40% 1 12.10.2027 -
Simone Scuffet Pisa Ativo 141 / 137 40% 1 10.10.2027 -
Nicolás Sumavil Platense Ativo 122 / 113 40% 2 08.10.2027 -
Mile Svilar AS Roma Ativo 163 / 179 40% 1 04.10.2027 -
Arnau Tenas Villarreal Ativo 136 / 162 40% 1 03.10.2027 -
Jonathan Klinsmann Cesena Ativo 129 / 119 40% 1 03.10.2027 -
Anton Mitryushkin Lokomotiv Moscow Ativo 109 / 129 40% 2 01.10.2027 -
Renato Solís Sporting Cristal Ativo 136 / 131 40% 2 28.09.2027 -
Leandro Brey Boca Juniors Ativo 123 / 137 40% 2 23.09.2027 -
Emil Audero Como Ativo 140 / 147 40% 2 19.09.2027 -
Christos Mandas Lazio Ativo 149 / 155 40% 4 07.09.2027 -
Maxim Borisko CSKA Moscow Ativo 140 / 134 40% 1 06.09.2027 -
Lautaro Morales Lanús Ativo 121 / 120 40% 1 30.08.2027 -
Victor Aznar Sevilla Ativo 122 / 128 40% 1 29.08.2027 -
Lautaro Amadé Lanús Perdido 123 / 132 40% 1 27.08.2027 -
Federico Ravaglia Bologna Ativo 155 / 144 40% 1 17.08.2027 -
Matías Tagliamonte Racing Club Ativo 110 / 127 40% 1 15.08.2027 -
Oliver Christensen Fiorentina Ativo 124 / 149 40% 1 12.08.2027 -
Rustam Yatimov Rostov Ativo 105 / 108 40% 1 12.08.2027 -
Adrian Šemper Al-Fateh Ativo 125 / 126 40% 1 08.08.2027 -
Martin Zlomislić Qarabag Ativo 135 / 110 40% 1 05.08.2027 -
Luis Ingolotti Atlético Tucumán Ativo 137 / 117 40% 1 03.08.2027 -
Josep Martínez Inter Ativo 132 / 138 40% 1 02.08.2027 -
Leandro Martins Benfica Ativo 83 / 101 40% 1 28.06.2027 -
Rhys Chadwick AFC Wimbledon Ativo 94 / 108 40% 1 28.06.2027 -
Bernardo Lima Porto Ativo 98 / 110 40% 1 15.06.2027 -
Gonçalo Oliveira Benfica Ativo 113 / 108 40% 1 03.06.2027 -
Ivan Giraldo Valencia Ativo 132 / 120 40% 1 03.06.2027 -
Luiz Henrique AS Roma Negociando 142 / 143 68% 1 01.06.2027 Aprovar
Billy Gilmour Napoli Ativo 144 / 140 40% 1 31.05.2027 -
Matías Soulé AS Roma Ativo 158 / 160 40% 2 28.05.2027 -
Emanuele Scipioni Monopoli Ativo 110 / 117 40% 1 28.05.2027 -
Mehdi Dorval Catanzaro Ativo 130 / 137 40% 1 24.05.2027 -
Giorgi Tsitaishvili Rayo Vallecano Ativo 137 / 127 40% 1 24.05.2027 -
Arthur Atta Fiorentina Ativo 154 / 145 40% 2 23.05.2027 -
Zakaria Aboukhlal Torino Ativo 142 / 139 40% 1 19.05.2027 -
Mikael Egill Ellertsson Genoa Ativo 145 / 125 40% 1 19.05.2027 -
Bongani Zungu Ajax Cape Town Ativo 113 / 117 40% 3 18.05.2027 -
Giorgos Koutsias Famalicao Ativo 114 / 111 40% 1 17.05.2027 -
Mitchel Bakker Modena Ativo 145 / 133 40% 2 16.05.2027 -
Cher Ndour Fiorentina Ativo 130 / 144 40% 1 14.05.2027 -
Giacomo Raspadori Atalanta Ativo 149 / 149 40% 2 12.05.2027 -
Giorgi Kvernadze Frosinone Ativo 132 / 120 40% 1 12.05.2027 -
Nuno Tavares Lazio Ativo 156 / 137 40% 1 11.05.2027 -
Raoul Bellanova Atalanta Ativo 141 / 158 40% 1 11.05.2027 -
John Yeboah Venezia Ativo 119 / 132 40% 1 10.05.2027 -
Jesús Rodríguez Como Ativo 139 / 133 40% 2 09.05.2027 -
Diego Gómez Brighton Ativo 132 / 149 40% 2 08.05.2027 -
Adrián Bernabé Parma Ativo 127 / 146 40% 1 08.05.2027 -
Lucas Da Cunha Como Ativo 143 / 149 40% 2 07.05.2027 -
Pontus Almqvist Parma Ativo 138 / 136 40% 2 07.05.2027 -
Nicolò Zaniolo Udinese Ativo 150 / 146 40% 2 05.05.2027 -
Job Ochieng Real Sociedad Ativo 109 / 105 40% 2 26.04.2027 -
Stiven Shpendi Empoli Ativo 132 / 134 40% 1 26.04.2027 -
Santiago Castro AS Roma Ativo 155 / 151 40% 1 24.04.2027 -
Simone Rabbi Ravenna Ativo 106 / 114 40% 1 24.04.2027 -
Camillo Tavernelli Arezzo Ativo 129 / 109 40% 2 22.04.2027 -
Martin Baturina Como Ativo 130 / 149 40% 1 22.04.2027 -
Ekain Orobengoa Real Sociedad Ativo 91 / 115 40% 1 22.04.2027 -
John Mercado Sparta Prague Ativo 120 / 124 40% 1 17.04.2027 -
Antoine Bernede Hellas Verona Ativo 131 / 114 40% 1 16.04.2027 -
Marquinhos Spartak Moscow Ativo 120 / 132 40% 3 13.04.2027 -
Savinho Tottenham Ativo 164 / 157 40% 1 11.04.2027 -
Assane Diao Como Ativo 144 / 151 40% 2 09.04.2027 -
Tommaso Pobega Bologna Ativo 129 / 132 40% 1 09.04.2027 -
Hannibal Burnley Ativo 127 / 116 40% 1 04.04.2027 -
Unai Gómez Udinese Ativo 147 / 134 40% 2 03.04.2027 -
João Félix Dinamo Moscow Ativo 147 / 154 40% 1 03.04.2027 -
Mohau Nkota Al-Ettifaq Ativo 122 / 132 40% 1 30.03.2027 -
Joe Gelhardt Hull City Ativo 119 / 141 40% 5 26.03.2027 -
Chemsdine Talbi Sunderland Ativo 137 / 159 40% 4 26.03.2027 -
Juanlu Bournemouth Ativo 157 / 158 40% 1 24.03.2027 -
Marcelo Allende Mamelodi Sundowns Ativo 124 / 125 40% 6 23.03.2027 -
Manor Solomon West Ham United Ativo 150 / 149 40% 3 22.03.2027 -
Jack Rudoni Coventry City Ativo 119 / 134 40% 2 22.03.2027 -
Alex Scott Bournemouth Ativo 162 / 155 40% 1 21.03.2027 -
Wilson Isidor Sunderland Ativo 129 / 129 40% 3 20.03.2027 -
Óscar Mingueza Crystal Palace Ativo 147 / 155 40% 1 19.03.2027 -
Wandile Duba ASO Chlef Ativo 113 / 108 40% 1 19.03.2027 -
Jacob Ramsey Newcastle United Ativo 159 / 142 40% 1 17.03.2027 -
Louie Barry Sheffield Wednesday Ativo 113 / 124 40% 2 15.03.2027 -
Carlos Vicente Birmingham Ativo 157 / 148 40% 4 14.03.2027 -
Oswin Appollis Orlando Pirates Ativo 109 / 118 40% 1 13.03.2027 -
Osher Davida Maccabi Tel Aviv Ativo 112 / 129 40% 1 09.03.2027 -
Yehor Yarmoliuk Brentford Ativo 133 / 151 40% 1 09.03.2027 -
Marcel Ruiz Crystal Palace Ativo 135 / 134 40% 2 07.03.2027 -
Malik Mothersille Stockport County Ativo 102 / 118 40% 2 06.03.2027 -
Nazar Voloshyn Dynamo Kyiv Ativo 142 / 137 40% 1 03.03.2027 -
James Garner Everton Ativo 136 / 159 40% 1 03.03.2027 -
Yeremy Pino Crystal Palace Ativo 154 / 137 40% 1 01.03.2027 -
Oston O'runov Persepolis Ativo 130 / 110 40% 2 27.02.2027 -
Ivo Mammini Beitar Jerusalem Ativo 125 / 119 40% 2 26.02.2027 -
Nicolas Jackson Aston Villa Ativo 158 / 146 40% 2 26.02.2027 -
Yousef Salech Cardiff City Ativo 123 / 128 40% 2 25.02.2027 -
Lorent Tolaj Plymouth Argyle Ativo 111 / 123 40% 1 25.02.2027 -
Gonzalo Fulham Ativo 156 / 149 40% 2 23.02.2027 -
Adrien Truffert Bournemouth Ativo 164 / 164 40% 2 23.02.2027 -
Matt O'Riley Brighton Ativo 150 / 140 40% 1 19.02.2027 -
Amine Adli Bournemouth Ativo 134 / 140 40% 1 18.02.2027 -
Adam Wharton Crystal Palace Ativo 144 / 145 40% 1 18.02.2027 -
Brian Brobbey Sunderland Ativo 149 / 146 40% 1 18.02.2027 -
Derensili Sanches Fernandes Huddersfield Town Ativo 118 / 128 40% 2 12.02.2027 -
Boubacar Kamara Aston Villa Ativo 163 / 162 40% 1 11.02.2027 -
Kevin Fulham Ativo 152 / 143 40% 1 07.02.2027 -
Fábio Carvalho Brentford Ativo 128 / 131 40% 1 04.02.2027 -
Jacques Siwe Rubin Ativo 125 / 102 40% 2 03.02.2027 -
Etiosa Ighodaro Kaizer Chiefs Ativo 119 / 113 40% 1 03.02.2027 -
Majid Moharrami Rah Ahan Ativo 113 / 101 40% 1 02.02.2027 -
Thiago Brentford Ativo 132 / 144 40% 1 01.02.2027 -
Ilyas Ansah Hull City Ativo 129 / 126 40% 2 23.01.2027 -
Vyacheslav Grulev Nizhniy Novgorod Ativo 112 / 100 40% 1 23.01.2027 -
Richard Koné Queens Park Rangers Ativo 121 / 116 40% 1 20.01.2027 -
Darlin Yongwa Norwich City Ativo 110 / 121 40% 1 19.01.2027 -
Petar Stanić Ludogorets Ativo 143 / 143 40% 2 18.01.2027 -
Scott Twine Bristol City Ativo 129 / 109 40% 1 18.01.2027 -
Ethan Galbraith Swansea City Ativo 144 / 130 40% 1 15.01.2027 -
Ali Ahmed Norwich City Ativo 112 / 132 40% 1 13.01.2027 -
Alex Robertson Cardiff City Ativo 117 / 108 40% 1 11.01.2027 -
Andre Brooks Sheffield United Ativo 129 / 114 40% 2 08.01.2027 -
Bobby Clark Derby County Ativo 123 / 128 40% 1 08.01.2027 -
André Wolverhampton Ativo 158 / 139 40% 1 07.01.2027 -
Habib Diarra Sunderland Ativo 154 / 156 40% 1 07.01.2027 -
Edoardo Bove Watford Ativo 135 / 134 40% 1 06.01.2027 -
Tyrese Campbell Sheffield United Ativo 122 / 116 40% 2 05.01.2027 -
Lorenzo Colombo Genoa Ativo 147 / 141 40% 1 05.01.2027 -
Welington Southampton Ativo 118 / 135 40% 1 05.01.2027 -
Sam Greenwood Bristol City Ativo 112 / 106 40% 1 04.01.2027 -
Adu Ares Eibar Ativo 109 / 114 40% 1 31.12.2026 -
Esequiel Barco Spartak Moscow Ativo 138 / 151 40% 1 29.12.2026 -
Armstrong Oko-Flex Levski Ativo 107 / 133 40% 1 29.12.2026 -
Amar Memić Viktoria Plzen Ativo 128 / 138 40% 1 28.12.2026 -
Ola Brynhildsen Rapid Wien Ativo 132 / 127 40% 1 01.12.2026 -
Ianis Hagi Alanyaspor Ativo 123 / 120 40% 1 22.11.2026 -
Ángel Correa River Plate Ativo 146 / 137 40% 3 20.11.2026 -
Luis Caicedo Spartak 1918 Ativo 99 / 100 40% 1 20.11.2026 -
Efraín Álvarez Aston Villa Ativo 136 / 122 40% 1 18.11.2026 Mais informações
Ferland Mendy Real Madrid Ativo 148 / 134 40% 2 17.11.2026 -
Edu Expósito Espanyol Ativo 131 / 145 40% 3 17.11.2026 Observar
Oli McBurnie Hull City Ativo 131 / 139 40% 2 17.11.2026 -
Martín Ojeda Orlando City Ativo 137 / 124 40% 3 16.11.2026 -
Jason Knight Bristol City Ativo 117 / 115 40% 1 15.11.2026 -
Jens Petter Hauge Bodo/Glimt Ativo 136 / 153 40% 1 14.11.2026 -
Fiete Arp OB Ativo 119 / 123 40% 3 13.11.2026 -
Matías Laurino Gornik Leczna Ativo 84 / 94 40% 1 13.11.2026 -
Dwight McNeil Crystal Palace Ativo 136 / 149 40% 2 10.11.2026 -
Miguel Merentiel Köln Ativo 129 / 119 40% 1 07.11.2026 -
Ignacio Russo Tigre Ativo 124 / 125 40% 1 07.11.2026 -
Marezi Portsmouth Ativo 108 / 137 40% 1 07.11.2026 -
Hwang Hee-Chan Wolverhampton Ativo 123 / 132 40% 2 05.11.2026 -
Talles Magno New York City Ativo 120 / 119 40% 1 05.11.2026 -
Tatsuhiro Sakamoto Coventry City Ativo 126 / 134 40% 1 03.11.2026 -
Leo Ceara Kashima Antlers Ativo 151 / 148 40% 4 01.11.2026 -
Tiago Palacios Estudiantes Ativo 129 / 134 40% 2 29.10.2026 -
Kévin Denkey FC Cincinnati Ativo 131 / 128 40% 1 24.10.2026 -
Marcus Ingvartsen San Diego Football Club Ativo 119 / 123 40% 1 23.10.2026 -
Franco Cristaldo Talleres Ativo 131 / 128 40% 1 22.10.2026 -
Nicolò Tresoldi Club Brugge Ativo 118 / 118 40% 2 20.10.2026 -
Alexander Aravena Portland Timbers Ativo 112 / 129 40% 2 18.10.2026 -
Reda Khadra Qarabag Ativo 126 / 142 40% 1 18.10.2026 -
Mohamed-Ali Cho Hull City Ativo 121 / 137 40% 2 16.10.2026 -
Tomás Molina Argentinos Juniors Ativo 126 / 125 40% 4 13.10.2026 -
Domagoj Drožđek Tractor Ativo 114 / 134 40% 1 13.10.2026 -
Zian Flemming Ipswich Town Ativo 125 / 134 40% 1 11.10.2026 -
Allan Saint-Maximin Charlotte Football Club Ativo 135 / 142 40% 1 11.10.2026 -
Majid Jahanbakhsh Rah Ahan Ativo 123 / 123 40% 1 11.10.2026 -
Juninho Pumas UNAM Ativo 131 / 132 40% 2 08.10.2026 -
Morgan Guilavogui Real Salt Lake Ativo 128 / 118 40% 2 07.10.2026 -
Myrto Uzuni Austin FC Ativo 145 / 146 40% 4 05.10.2026 -
Dániel Gazdag New England Revolution Ativo 143 / 119 40% 1 05.10.2026 -
Josh Sargent Toronto FC Ativo 143 / 115 40% 2 04.10.2026 -
Mostafa Mohamed Konyaspor Ativo 113 / 121 40% 1 04.10.2026 -
Carlos Álvarez Club America Ativo 137 / 140 40% 1 01.10.2026 -
Jordan Morris Seattle Sounders Ativo 138 / 118 40% 1 29.09.2026 -
Jesus Ferreira Seattle Sounders Ativo 135 / 122 40% 1 28.09.2026 -
Timo Werner San Jose Earthquakes Ativo 130 / 120 40% 1 27.09.2026 -
Edwuin Cetré Estudiantes Ativo 127 / 118 40% 1 27.09.2026 -
Erik Lira Cruz Azul Ativo 131 / 128 40% 1 26.09.2026 -
Bryan González Guadalajara Ativo 136 / 135 40% 1 25.09.2026 -
Richard Ledezma Guadalajara Ativo 138 / 145 40% 1 23.09.2026 -
Ismael Díaz Leon Ativo 116 / 136 40% 2 21.09.2026 -
Wessam Abou Ali Columbus Crew Ativo 115 / 127 40% 1 21.09.2026 -
Alejandro Zendejas Club America Ativo 131 / 128 40% 2 18.09.2026 -
Duncan McGuire Houston Dynamo Ativo 121 / 125 40% 1 18.09.2026 -
Sergi Cardona KAA Gent Ativo 149 / 143 40% 1 16.09.2026 -
Esteban Obregón Montevideo City Torque Ativo 121 / 123 40% 1 15.09.2026 -
Sebastián Córdova Pumas UNAM Ativo 140 / 117 40% 1 13.09.2026 -
Enzo Cabrera Danubio Ativo 104 / 103 40% 1 10.09.2026 -
Agustín Paz Progreso Ativo 112 / 116 40% 1 10.09.2026 -
Rafael Santos Borré River Plate Ativo 124 / 133 40% 1 10.09.2026 -
Pep Biel Charlotte Football Club Ativo 136 / 129 40% 1 07.09.2026 -
Federico Viñas Toluca Ativo 111 / 125 40% 1 07.09.2026 -
Steven Bergwijn Al-Ittihad Ativo 161 / 131 40% 1 02.09.2026 -
Kelvin Yeboah Minnesota United FC Ativo 110 / 117 40% 1 31.08.2026 -
Maurits Kjærgaard Red Bull Salzburg Ativo 138 / 132 40% 1 28.08.2026 -
Hugo Cuypers Monterrey Ativo 142 / 120 40% 1 22.08.2026 -
Juan Dinenno Pumas UNAM Ativo 126 / 136 40% 1 18.08.2026 -
Álex Arce Independiente Rivadavia Ativo 121 / 135 40% 1 17.08.2026 -
Milton Giménez Boca Juniors Ativo 133 / 123 40% 1 15.08.2026 -
Dejan Joveljić Seattle Sounders Ativo 115 / 135 40% 1 14.08.2026 -
Matías Vargas Gimnasia y Esgrima Ativo 120 / 130 40% 1 08.08.2026 -
Aune Heggebø West Bromwich Albion Ativo 121 / 141 40% 1 05.08.2026 -
Agustín Palavecino Cruz Azul Ativo 143 / 133 40% 1 03.08.2026 -